Delta Virtual Airport Information Service

Edmonton International Airport

ICAO: CYEG Country: Canada
Latitude: 53.3097 Longitude: -113.579
Latest Arrival : ACA244 (CYVR-CYEG) Latest Departure : ACA237 (CYEG-CYVR)


WX CaptureLIVE
Data provided by noaa.gov | Fetched at 14:22:02

METAR : CYEG 151900Z 28008KT 20SM FEW025 BKN075 BKN230 20/11 A3003 RMK CU1AC5CI1 CI TR SLP175 DENSITY ALT 3400FT

TAF : CYEG 151738Z 1518/1618 27012G22KT P6SM FEW030 SCT070 BKN120 TEMPO 1518/1519 P6SM -SHRA SCT020 BKN060 BKN120 FM151900 30012G22KT P6SM BKN060 OVC120 TEMPO 1519/1601 SCT060 BKN120 FM160100 32008KT P6SM FEW080 BECMG 1604/1606 15006KT FM160900 15008KT P6SM SCT240 BECMG 1613/1615 17012KT RMK NXT FCST BY 152100Z


Runway Data for CYEG
Data provided by openaviationdata.com

Runway ID Mag Var Hdg Length Elevation Surface ILS Freq ILS Id ILS Slope
2 17 17° 10981 ft 2327 ft Asphalt 110.3 IEG 3
12 17 117° 10181 ft 2327 ft Asphalt 109.9 IFP 3
20 17 197° 10981 ft 2327 ft Asphalt -- -- --
30 17 297° 10181 ft 2327 ft Asphalt 109.1 IKB 3

Edmonton International Airport, Canada
Use only for reference purposes



Not for navigational purposes.